Time;durP1;ratioP1;P1;durP2;ratioP2;P2;SDS_P1;SDS_P2;PMS_P1;PMS_P2;Temp;Humidity;BMP_temperature;BMP_pressure;BME280_temperature;BME280_humidity;BME280_pressure;Samples;Min_cycle;Max_cycle;Signal;HPM_P1;HPM_P2
2023/01/01 00:00:37;;;;;;;33.00;14.98;;;;;;;-142.75;100.00;76225.81;5061375;28;19916;-68
2023/01/01 00:03:02;;;;;;;28.98;15.20;;;;;;;-142.75;100.00;76239.59;5062901;28;20992;-69
2023/01/01 00:05:27;;;;;;;29.13;13.98;;;;;;;-142.75;100.00;76229.75;5061315;28;20036;-69
2023/01/01 00:07:53;;;;;;;24.27;11.88;;;;;;;-142.75;100.00;76235.66;5057477;28;20024;-69
2023/01/01 00:10:27;;;;;;;28.85;10.38;;;;;;;-142.75;100.00;76243.53;5062787;28;20032;-69
2023/01/01 00:12:52;;;;;;;26.30;12.77;;;;;;;-142.75;100.00;76259.28;5062925;28;20025;-69
2023/01/01 00:15:17;;;;;;;25.88;10.48;;;;;;;-142.75;100.00;76241.56;5062850;28;20036;-69
2023/01/01 00:17:43;;;;;;;;;;;;;;;-142.75;100.00;76215.97;5062979;28;20032;-69
2023/01/01 00:20:08;;;;;;;25.92;10.68;;;;;;;-142.75;100.00;76239.59;5062408;28;19923;-69
2023/01/01 00:22:33;;;;;;;;;;;;;;;-142.75;100.00;76231.72;5063138;28;20031;-69
2023/01/01 00:24:59;;;;;;;34.03;11.85;;;;;;;-142.75;100.00;76233.69;5062967;28;19971;-68
2023/01/01 00:27:24;;;;;;;;;;;;;;;-142.75;100.00;76239.59;5062555;28;20074;-68
2023/01/01 00:29:49;;;;;;;27.42;10.85;;;;;;;-142.75;100.00;76241.56;5062854;28;19923;-69
2023/01/01 00:32:15;;;;;;;22.65;10.90;;;;;;;-142.75;100.00;76247.47;5062620;28;20032;-68
2023/01/01 00:34:40;;;;;;;;;;;;;;;-142.75;100.00;76225.81;5062899;28;20036;-68
2023/01/01 00:37:05;;;;;;;17.60;8.20;;;;;;;-142.75;100.00;76227.78;5061754;28;19966;-68
2023/01/01 00:39:30;;;;;;;17.08;7.43;;;;;;;-142.75;100.00;76229.75;5062117;28;20032;-69
2023/01/01 00:41:55;;;;;;;;;;;;;;;-142.75;100.00;76229.75;5062961;28;20101;-69
2023/01/01 00:44:21;;;;;;;14.70;6.15;;;;;;;-142.75;100.00;76241.56;5057663;28;20485;-69
2023/01/01 00:46:46;;;;;;;;;;;;;;;-142.75;100.00;76229.75;5063238;28;20028;-70
2023/01/01 00:49:11;;;;;;;13.95;4.70;;;;;;;-142.75;100.00;76212.03;5062199;28;19924;-69
2023/01/01 00:51:36;;;;;;;;;;;;;;;-142.75;100.00;76215.97;5044687;28;20068;-69
2023/01/01 00:54:02;;;;;;;18.70;5.65;;;;;;;-142.75;100.00;76235.66;5062210;28;20279;-69
2023/01/01 00:56:27;;;;;;;;;;;;;;;-142.75;100.00;76227.78;5062972;28;20036;-69
2023/01/01 00:58:52;;;;;;;18.60;6.20;;;;;;;-142.75;100.00;76241.56;5059240;28;19920;-69
2023/01/01 01:01:18;;;;;;;;;;;;;;;-142.75;100.00;76239.59;5030750;28;20110;-69
2023/01/01 01:03:43;;;;;;;12.90;4.45;;;;;;;-142.75;100.00;76259.28;5004577;28;20222;-69
2023/01/01 01:06:11;;;;;;;11.18;4.55;;;;;;;-142.75;100.00;76249.44;4988774;28;20135;-69
2023/01/01 01:08:40;;;;;;;12.77;5.03;;;;;;;-142.75;100.00;76255.34;5003982;28;20033;-67
2023/01/01 01:11:07;;;;;;;12.82;4.10;;;;;;;-142.75;100.00;76267.16;5002548;28;20020;-67
2023/01/01 01:13:32;;;;;;;9.60;3.97;;;;;;;-142.75;100.00;76253.38;5002380;28;20106;-68
2023/01/01 01:15:58;;;;;;;11.90;3.67;;;;;;;-142.75;100.00;76239.59;4984883;28;20299;-68
2023/01/01 01:18:24;;;;;;;14.75;3.88;;;;;;;-142.75;100.00;76267.16;5004516;28;20330;-73
2023/01/01 01:20:50;;;;;;;;;;;;;;;-142.75;100.00;76286.84;4985134;28;20038;-69
2023/01/01 01:23:16;;;;;;;12.07;3.78;;;;;;;-142.75;100.00;76273.06;5006687;28;20655;-68
2023/01/01 01:25:42;;;;;;;12.20;3.20;;;;;;;-142.75;100.00;76277.00;4987856;28;20147;-68
2023/01/01 01:28:07;;;;;;;8.70;3.03;;;;;;;-142.75;100.00;76280.94;4983862;28;20206;-68
2023/01/01 01:30:33;;;;;;;12.85;4.07;;;;;;;-142.75;100.00;76275.03;5011191;22;20021;-68
2023/01/01 01:32:58;;;;;;;11.48;4.00;;;;;;;-142.75;100.00;76284.88;4992158;28;20328;-67
2023/01/01 01:35:24;;;;;;;10.93;3.53;;;;;;;-142.75;100.00;76290.78;4982759;28;20465;-67
2023/01/01 01:37:49;;;;;;;;;;;;;;;-142.75;100.00;76278.97;4989839;28;20324;-67
2023/01/01 01:40:17;;;;;;;8.18;2.70;;;;;;;-142.75;100.00;76296.69;5001820;28;20031;-68
2023/01/01 01:42:47;;;;;;;7.50;2.60;;;;;;;-142.75;100.00;76288.81;4982723;28;20024;-67
2023/01/01 01:45:14;;;;;;;9.63;2.63;;;;;;;-142.75;100.00;76296.69;4970516;28;20535;-67
2023/01/01 01:47:49;;;;;;;6.60;2.30;;;;;;;-142.75;100.00;76320.31;4962969;28;20580;-65
2023/01/01 01:50:21;;;;;;;9.15;3.33;;;;;;;-142.75;100.00;76324.25;4964405;28;20526;-69
2023/01/01 01:52:54;;;;;;;7.88;2.65;;;;;;;-142.75;100.00;76318.34;4968553;28;20064;-69
2023/01/01 01:55:19;;;;;;;7.10;2.53;;;;;;;-142.75;100.00;76320.31;4979543;28;20604;-68
2023/01/01 01:57:45;;;;;;;8.65;2.55;;;;;;;-142.75;100.00;76318.34;4969802;28;20136;-68
2023/01/01 02:00:11;;;;;;;10.57;3.15;;;;;;;-142.75;100.00;76328.19;4961015;28;20352;-69
2023/01/01 02:02:52;;;;;;;10.80;2.78;;;;;;;-142.75;100.00;76322.28;4971434;28;20083;-69
2023/01/01 02:05:19;;;;;;;9.05;2.85;;;;;;;-142.75;100.00;76334.09;4983035;28;20534;-69
2023/01/01 02:07:45;;;;;;;11.35;3.10;;;;;;;-142.75;100.00;76340.00;4970860;28;20064;-68
2023/01/01 02:10:10;;;;;;;;;;;;;;;-142.75;100.00;76345.91;4979648;28;20131;-68
2023/01/01 02:12:36;;;;;;;15.93;2.35;;;;;;;-142.75;100.00;76341.97;4974025;28;20225;-66
2023/01/01 02:15:02;;;;;;;10.60;2.65;;;;;;;-142.75;100.00;76353.78;4981240;28;20425;-69
2023/01/01 02:17:30;;;;;;;9.40;2.03;;;;;;;-142.75;100.00;76345.91;4972431;28;20356;-68
2023/01/01 02:20:07;;;;;;;6.75;2.00;;;;;;;-142.75;100.00;76353.78;4961321;28;20554;-67
2023/01/01 02:22:35;;;;;;;;;;;;;;;-142.75;100.00;76340.00;4969555;28;20021;-68
2023/01/01 02:25:27;;;;;;;10.70;2.17;;;;;;;-142.75;100.00;76345.91;4965261;28;19912;-69
2023/01/01 02:28:04;;;;;;;6.15;1.83;;;;;;;-142.75;100.00;76363.59;4977284;28;20665;-68
2023/01/01 02:30:31;;;;;;;9.38;2.50;;;;;;;-142.75;100.00;76353.78;4974339;28;20554;-68
2023/01/01 02:33:02;;;;;;;9.27;2.22;;;;;;;-142.75;100.00;76357.69;4978280;28;20049;-68
2023/01/01 02:35:38;;;;;;;23.77;8.35;;;;;;;-142.75;100.00;76359.66;4977285;28;20573;-68
2023/01/01 02:38:26;;;;;;;13.60;4.90;;;;;;;-142.75;100.00;76375.41;4970348;28;20029;-67
2023/01/01 02:40:58;;;;;;;12.30;3.22;;;;;;;-142.75;100.00;76373.44;4970998;28;20534;-68
2023/01/01 02:43:23;;;;;;;8.13;2.50;;;;;;;-142.75;100.00;76381.31;4973367;28;20048;-68
2023/01/01 02:45:49;;;;;;;10.93;2.13;;;;;;;-142.75;100.00;76404.94;4970573;28;20469;-68
2023/01/01 02:48:46;;;;;;;28.02;12.65;;;;;;;-142.75;100.00;76381.31;4978362;28;20287;-69
2023/01/01 02:51:56;;;;;;;20.63;9.73;;;;;;;-142.75;100.00;76383.28;4970708;28;20020;-69
2023/01/01 02:54:34;;;;;;;8.88;3.63;;;;;;;-142.75;100.00;76383.28;4873564;29;20608;-68
2023/01/01 02:57:09;;;;;;;163.90;66.72;;;;;;;-142.75;100.00;76377.38;4868139;29;20036;-68
2023/01/01 03:02:58;;;;;;;15.40;5.15;;;;;;;-142.75;100.00;76397.06;4974130;28;20595;-69
2023/01/01 03:05:32;;;;;;;5.75;2.03;;;;;;;-142.75;100.00;76397.06;4976587;28;20600;-68
2023/01/01 03:08:16;;;;;;;4.57;1.58;;;;;;;-142.75;100.00;76401.00;4976517;28;20059;-70
2023/01/01 03:10:57;;;;;;;4.72;1.92;;;;;;;-142.75;100.00;76395.09;4955539;28;20039;-69
2023/01/01 03:13:31;;;;;;;8.60;1.80;;;;;;;-142.75;100.00;76397.06;4978902;28;20056;-70
2023/01/01 03:15:56;;;;;;;8.85;1.52;;;;;;;-142.75;100.00;76389.19;4965699;28;20064;-71
2023/01/01 03:18:27;;;;;;;4.78;1.67;;;;;;;-142.75;100.00;76404.94;4976710;28;20348;-67
2023/01/01 03:20:57;;;;;;;13.50;1.48;;;;;;;-142.75;100.00;76389.19;4973962;28;20554;-68
2023/01/01 03:23:30;;;;;;;7.28;1.38;;;;;;;-142.75;100.00;76401.00;4963149;28;20052;-69
2023/01/01 03:26:00;;;;;;;8.02;1.48;;;;;;;-142.75;100.00;76430.53;4972418;28;20104;-70
2023/01/01 03:28:34;;;;;;;12.77;1.30;;;;;;;-142.75;100.00;76438.41;4970229;28;20025;-69
2023/01/01 03:30:59;;;;;;;8.05;1.73;;;;;;;-142.75;100.00;76456.13;4975873;28;20542;-69
2023/01/01 03:33:38;;;;;;;9.88;2.28;;;;;;;-142.75;100.00;76473.84;4966967;28;20037;-70
2023/01/01 03:36:30;;;;;;;6.65;1.55;;;;;;;-142.75;100.00;76491.56;4977586;28;20627;-69
2023/01/01 03:39:11;;;;;;;6.13;1.25;;;;;;;-142.75;100.00;76499.44;4970132;28;20574;-69
2023/01/01 03:42:05;;;;;;;8.90;1.67;;;;;;;-142.75;100.00;76505.34;4976396;28;20036;-69
2023/01/01 03:44:55;;;;;;;8.88;1.60;;;;;;;-142.75;100.00;76523.06;4944891;28;20049;-70
2023/01/01 03:47:20;;;;;;;5.40;1.23;;;;;;;-142.75;100.00;76523.06;4972148;28;20577;-69
2023/01/01 03:49:46;;;;;;;9.80;1.48;;;;;;;-142.75;100.00;76523.06;4972971;28;20037;-69
2023/01/01 03:52:14;;;;;;;;;;;;;;;-142.75;100.00;76511.25;4968328;28;20325;-70
2023/01/01 03:54:58;;;;;;;;;;;;;;;-142.75;100.00;76517.16;4966242;28;19909;-69
2023/01/01 03:57:42;;;;;;;4.68;0.73;;;;;;;-142.75;100.00;76530.91;4976923;28;19913;-69
2023/01/01 04:00:20;;;;;;;8.02;1.35;;;;;;;-142.75;100.00;76548.63;4981542;28;20029;-69
2023/01/01 04:02:55;;;;;;;8.25;1.58;;;;;;;-142.75;100.00;76548.63;4983144;28;20021;-69
2023/01/01 04:05:23;;;;;;;6.57;1.35;;;;;;;-142.75;100.00;76544.69;4984771;28;20622;-67
2023/01/01 04:07:50;;;;;;;6.47;1.48;;;;;;;-142.75;100.00;76554.53;4978687;28;20020;-68
2023/01/01 04:10:16;;;;;;;6.07;1.48;;;;;;;-142.75;100.00;76558.47;4979666;28;20025;-69
2023/01/01 04:12:52;;;;;;;;;;;;;;;-142.75;100.00;76550.59;4983710;28;20049;-68
2023/01/01 04:15:21;;;;;;;7.00;1.40;;;;;;;-142.75;100.00;76556.50;4974899;28;19971;-68
2023/01/01 04:17:47;;;;;;;13.77;1.80;;;;;;;-142.75;100.00;76568.31;4973174;28;20037;-69
2023/01/01 04:20:13;;;;;;;11.00;1.75;;;;;;;-142.75;100.00;76568.31;4983238;28;20309;-68
2023/01/01 04:22:38;;;;;;;5.05;1.50;;;;;;;-142.75;100.00;76582.09;4986568;28;20058;-69
2023/01/01 04:25:04;;;;;;;7.10;1.38;;;;;;;-142.75;100.00;76593.91;4981989;28;20421;-69
2023/01/01 04:27:30;;;;;;;;;;;;;;;-142.75;100.00;76597.84;4975449;28;20025;-70
2023/01/01 04:29:55;;;;;;;6.82;1.40;;;;;;;-142.75;100.00;76605.72;4977324;28;20248;-70
2023/01/01 04:32:21;;;;;;;4.30;1.35;;;;;;;-142.75;100.00;76611.63;4965067;28;20442;-69
2023/01/01 04:34:47;;;;;;;5.80;1.55;;;;;;;-142.75;100.00;76621.47;4980102;28;20535;-69
2023/01/01 04:37:13;;;;;;;4.13;1.63;;;;;;;-142.75;100.00;76623.44;4984976;28;20302;-69
2023/01/01 04:39:38;;;;;;;10.88;1.95;;;;;;;-142.75;100.00;76633.28;4977943;28;20437;-67
2023/01/01 04:42:04;;;;;;;5.70;1.33;;;;;;;-142.75;100.00;76637.22;4979833;28;20317;-68
2023/01/01 04:44:29;;;;;;;10.32;1.35;;;;;;;-142.75;100.00;76633.28;4965601;28;20336;-68
2023/01/01 04:46:55;;;;;;;8.10;1.50;;;;;;;-142.75;100.00;76637.22;4965425;28;20289;-68
2023/01/01 04:49:20;;;;;;;7.70;1.17;;;;;;;-142.75;100.00;76633.28;4971341;28;20427;-69
2023/01/01 04:51:46;;;;;;;5.03;1.23;;;;;;;-142.75;100.00;76647.06;4973661;28;20340;-68
2023/01/01 04:54:11;;;;;;;6.05;1.42;;;;;;;-142.75;100.00;76645.09;4969246;28;20079;-69
2023/01/01 04:56:37;;;;;;;6.18;1.23;;;;;;;-142.75;100.00;76637.22;4973478;28;20288;-69
2023/01/01 04:59:02;;;;;;;6.00;0.90;;;;;;;-142.75;100.00;76666.75;4982041;28;20319;-69
2023/01/01 05:01:29;;;;;;;8.63;1.23;;;;;;;-142.75;100.00;76647.06;4971772;28;20324;-68
2023/01/01 05:03:56;;;;;;;2.75;1.15;;;;;;;-142.75;100.00;76643.13;4971857;28;20098;-69
2023/01/01 05:06:23;;;;;;;7.35;1.08;;;;;;;-142.75;100.00;76668.72;4974338;28;20128;-69
2023/01/01 05:08:51;;;;;;;3.25;0.80;;;;;;;-142.75;100.00;76668.72;4973960;28;20135;-69
2023/01/01 05:11:18;;;;;;;3.60;0.95;;;;;;;-142.75;100.00;76654.94;4978027;28;20021;-69
2023/01/01 05:13:46;;;;;;;5.40;0.80;;;;;;;-142.75;100.00;76652.97;4985648;28;20021;-69
2023/01/01 05:16:14;;;;;;;6.72;0.85;;;;;;;-142.75;100.00;76664.78;4981752;28;20098;-69
2023/01/01 05:18:41;;;;;;;4.95;0.95;;;;;;;-142.75;100.00;76668.72;4982842;28;20052;-69
2023/01/01 05:21:10;;;;;;;3.22;0.70;;;;;;;-142.75;100.00;76688.41;4963601;28;20690;-68
2023/01/01 05:23:35;;;;;;;5.57;1.00;;;;;;;-142.75;100.00;76710.06;4968843;28;20025;-69
2023/01/01 05:26:09;;;;;;;5.20;0.75;;;;;;;-142.75;100.00;76696.28;4958909;28;20450;-69
2023/01/01 05:28:35;;;;;;;3.30;0.55;;;;;;;-142.75;100.00;76696.28;4967191;28;20058;-69
2023/01/01 05:31:10;;;;;;;5.57;0.80;;;;;;;-142.75;100.00;76700.22;4982571;28;20430;-67
2023/01/01 05:33:35;;;;;;;6.55;0.68;;;;;;;-142.75;100.00;76712.03;4945963;28;20025;-68
2023/01/01 05:36:02;;;;;;;5.93;0.90;;;;;;;-142.75;100.00;76706.13;4972920;28;20328;-68
2023/01/01 05:38:28;;;;;;;3.28;0.68;;;;;;;-142.75;100.00;76714.00;4969756;28;20051;-68
2023/01/01 05:40:54;;;;;;;3.60;1.02;;;;;;;-142.75;100.00;76725.81;4974910;28;20351;-68
2023/01/01 05:43:20;;;;;;;3.60;0.82;;;;;;;-142.75;100.00;76731.72;4968247;28;20025;-69
2023/01/01 05:45:45;;;;;;;6.22;0.70;;;;;;;-142.75;100.00;76743.53;4972332;28;20328;-69
2023/01/01 05:48:11;;;;;;;5.05;0.70;;;;;;;-142.75;100.00;76743.53;4973721;28;20383;-69
2023/01/01 05:50:36;;;;;;;7.57;0.93;;;;;;;-142.75;100.00;76745.50;4961507;28;20356;-68
2023/01/01 05:53:02;;;;;;;3.15;0.65;;;;;;;-142.75;100.00;76749.44;4979702;28;20462;-69
2023/01/01 05:55:28;;;;;;;;;;;;;;;-142.75;100.00;76741.56;4985303;28;20437;-68
2023/01/01 05:57:53;;;;;;;7.28;1.00;;;;;;;-142.75;100.00;76743.53;4979971;28;20197;-68
2023/01/01 06:00:19;;;;;;;3.22;0.60;;;;;;;-142.75;100.00;76765.19;4964030;28;20352;-69
2023/01/01 06:02:45;;;;;;;4.22;0.35;;;;;;;-142.75;100.00;76769.13;4982747;28;20032;-70
2023/01/01 06:05:10;;;;;;;6.85;0.90;;;;;;;-142.75;100.00;76749.44;4982563;28;20374;-68
2023/01/01 06:07:36;;;;;;;6.05;1.15;;;;;;;-142.75;100.00;76761.25;4971891;28;20364;-69
2023/01/01 06:10:02;;;;;;;;;;;;;;;-142.75;100.00;76765.19;4965934;28;20353;-69
2023/01/01 06:12:28;;;;;;;5.10;0.88;;;;;;;-142.75;100.00;76780.94;4962734;28;19939;-68
2023/01/01 06:14:53;;;;;;;5.50;0.68;;;;;;;-142.75;100.00;76775.03;4981839;28;20382;-69
2023/01/01 06:17:19;;;;;;;4.07;0.70;;;;;;;-142.75;100.00;76792.75;4967012;28;20465;-69
2023/01/01 06:19:44;;;;;;;;;;;;;;;-142.75;100.00;76788.81;4967966;28;20366;-69
2023/01/01 06:22:10;;;;;;;3.90;0.45;;;;;;;-142.75;100.00;76798.66;4970932;28;20273;-70
2023/01/01 06:24:35;;;;;;;3.97;0.95;;;;;;;-142.75;100.00;76812.41;4969802;28;20370;-69
2023/01/01 06:27:01;;;;;;;4.97;0.98;;;;;;;-142.75;100.00;76814.38;4966348;28;20294;-69
2023/01/01 06:29:26;;;;;;;5.30;0.85;;;;;;;-142.75;100.00;76814.38;4969872;28;20359;-69
2023/01/01 06:31:52;;;;;;;5.05;0.93;;;;;;;-142.75;100.00;76822.25;4981631;28;20546;-69
2023/01/01 06:34:17;;;;;;;5.88;0.70;;;;;;;-142.75;100.00;76853.75;4976667;28;20268;-69
2023/01/01 06:36:43;;;;;;;8.13;0.90;;;;;;;-142.75;100.00;76849.81;4982663;28;20350;-69
2023/01/01 06:39:08;;;;;;;8.00;0.85;;;;;;;-142.75;100.00;76863.59;4976581;28;20374;-68
2023/01/01 06:41:34;;;;;;;1.60;0.43;;;;;;;-142.75;100.00;76847.84;4978086;28;20399;-68
2023/01/01 06:44:00;;;;;;;5.63;0.80;;;;;;;-142.75;100.00;76845.88;4966744;28;20371;-68
2023/01/01 06:46:27;;;;;;;6.63;0.50;;;;;;;-142.75;100.00;76857.69;4960680;28;20017;-68
2023/01/01 06:48:56;;;;;;;3.47;1.02;;;;;;;-142.75;100.00;76879.34;4960540;28;20060;-69
2023/01/01 06:51:30;;;;;;;4.40;0.50;;;;;;;-142.75;100.00;76879.34;4962208;28;20029;-68
2023/01/01 06:54:00;;;;;;;1.10;0.28;;;;;;;-142.75;100.00;76893.13;4971106;28;20554;-68
2023/01/01 06:56:27;;;;;;;4.40;0.55;;;;;;;-142.75;100.00;76901.00;4974450;28;20029;-69
2023/01/01 06:58:52;;;;;;;6.55;1.20;;;;;;;-142.75;100.00;76918.72;4976709;28;20103;-69
2023/01/01 07:01:20;;;;;;;6.65;0.73;;;;;;;-142.75;100.00;76904.94;4977574;28;20350;-68
2023/01/01 07:03:51;;;;;;;7.30;1.25;;;;;;;-142.75;100.00;76914.78;4980630;28;20542;-68
2023/01/01 07:06:17;;;;;;;8.90;0.65;;;;;;;-142.75;100.00;76934.47;4968998;28;20033;-69
2023/01/01 07:08:42;;;;;;;2.30;0.60;;;;;;;-142.75;100.00;76944.31;4979975;28;20331;-69
2023/01/01 07:11:08;;;;;;;6.70;0.70;;;;;;;-142.75;100.00;76942.34;4966548;28;20388;-68
2023/01/01 07:13:33;;;;;;;5.93;0.52;;;;;;;-142.75;100.00;76936.44;4975761;28;20304;-69
2023/01/01 07:15:59;;;;;;;5.38;0.80;;;;;;;-142.75;100.00;76936.44;4970094;28;20321;-68
2023/01/01 07:18:25;;;;;;;6.82;1.10;;;;;;;-142.75;100.00;76948.25;4966405;28;20040;-69
2023/01/01 07:20:54;;;;;;;4.55;0.85;;;;;;;-142.75;100.00;76965.97;4969450;28;20200;-69
2023/01/01 07:23:19;;;;;;;8.50;1.05;;;;;;;-142.75;100.00;76977.78;4982893;28;20073;-69
2023/01/01 07:25:47;;;;;;;8.32;0.88;;;;;;;-142.75;100.00;76995.50;4983316;28;20304;-69
2023/01/01 07:28:13;;;;;;;7.53;0.73;;;;;;;-142.75;100.00;76987.63;4964948;28;20033;-68
2023/01/01 07:30:38;;;;;;;3.50;0.57;;;;;;;-142.75;100.00;76989.59;4976650;28;20466;-68
2023/01/01 07:33:03;;;;;;;8.23;0.80;;;;;;;-142.75;100.00;76989.59;4984959;28;20065;-68
2023/01/01 07:35:29;;;;;;;10.00;0.88;;;;;;;-142.75;100.00;77013.22;4979309;28;20136;-69
2023/01/01 07:37:54;;;;;;;5.22;0.73;;;;;;;-142.75;100.00;77019.13;4954890;28;20356;-69
2023/01/01 07:40:20;;;;;;;3.50;0.70;;;;;;;-142.75;100.00;77019.13;4987761;28;20327;-69
2023/01/01 07:42:45;;;;;;;6.55;1.00;;;;;;;-142.75;100.00;77023.06;4985251;28;20401;-69
2023/01/01 07:45:12;;;;;;;4.95;0.80;;;;;;;-142.75;100.00;77030.94;4966434;28;20535;-68
2023/01/01 07:47:37;;;;;;;8.85;0.88;;;;;;;-142.75;100.00;77042.75;4966801;28;20171;-68
2023/01/01 07:50:04;;;;;;;4.57;0.50;;;;;;;-142.75;100.00;77040.78;4975648;28;20411;-68
2023/01/01 07:52:29;;;;;;;4.97;0.57;;;;;;;-142.75;100.00;77062.44;4965255;28;20554;-68
2023/01/01 07:54:55;;;;;;;5.40;0.77;;;;;;;-142.75;100.00;77082.13;4965724;28;20047;-67
2023/01/01 07:57:20;;;;;;;11.07;1.23;;;;;;;-142.75;100.00;77088.03;4970545;28;20480;-68
2023/01/01 07:59:46;;;;;;;3.15;0.45;;;;;;;-142.75;100.00;77082.13;4971661;28;20187;-68
2023/01/01 08:02:11;;;;;;;4.60;0.57;;;;;;;-142.75;100.00;77078.19;4979170;28;20483;-69
2023/01/01 08:04:37;;;;;;;9.95;1.10;;;;;;;-142.75;100.00;77084.09;4969169;28;20348;-69
2023/01/01 08:07:03;;;;;;;4.55;0.80;;;;;;;-142.75;100.00;77082.13;4964980;28;20132;-69
2023/01/01 08:09:29;;;;;;;3.67;1.10;;;;;;;-142.75;100.00;77105.75;4965460;28;20382;-69
2023/01/01 08:11:57;;;;;;;6.40;1.20;;;;;;;-142.75;100.00;77111.66;4981859;28;20385;-69
2023/01/01 08:14:24;;;;;;;3.30;1.02;;;;;;;-142.75;100.00;77113.63;4984395;28;20803;-68
2023/01/01 08:16:50;;;;;;;6.47;0.82;;;;;;;-142.75;100.00;77109.69;4984660;28;20021;-69
2023/01/01 08:19:15;;;;;;;6.88;0.70;;;;;;;-142.75;100.00;77105.75;4978312;28;20465;-68
2023/01/01 08:21:41;;;;;;;6.03;0.77;;;;;;;-142.75;100.00;77105.75;4967945;28;20127;-69
2023/01/01 08:24:06;;;;;;;9.88;0.82;;;;;;;-142.75;100.00;77111.66;4967161;28;20313;-69
2023/01/01 08:26:34;;;;;;;5.03;0.85;;;;;;;-142.75;100.00;77131.34;4987029;28;20351;-69
2023/01/01 08:29:05;;;;;;;7.47;0.98;;;;;;;-142.75;100.00;77121.50;4980961;28;20065;-69
2023/01/01 08:31:30;;;;;;;13.00;1.58;;;;;;;-142.75;100.00;77113.63;4970473;28;20115;-69
2023/01/01 08:33:56;;;;;;;7.43;1.00;;;;;;;-142.75;100.00;77113.63;4971620;28;20429;-69
2023/01/01 08:36:21;;;;;;;5.32;0.88;;;;;;;-142.75;100.00;77107.72;4983578;28;20421;-69
2023/01/01 08:38:47;;;;;;;5.25;1.05;;;;;;;-142.75;100.00;77125.44;4968929;28;20328;-68
2023/01/01 08:41:12;;;;;;;9.07;1.25;;;;;;;-142.75;100.00;77101.81;4969753;28;20021;-69
2023/01/01 08:43:38;;;;;;;8.77;1.23;;;;;;;-142.75;100.00;77113.63;4967167;28;20313;-68
2023/01/01 08:46:03;;;;;;;11.50;1.55;;;;;;;-142.75;100.00;77129.38;4967035;28;20336;-68
2023/01/01 08:48:29;;;;;;;6.35;0.77;;;;;;;-142.75;100.00;77133.31;4965406;28;20309;-68
2023/01/01 08:50:58;;;;;;;4.00;0.70;;;;;;;-142.75;100.00;77127.41;4970274;28;20312;-69
2023/01/01 08:53:25;;;;;;;11.57;1.55;;;;;;;-142.75;100.00;77123.47;4978503;28;20056;-69
2023/01/01 08:56:02;;;;;;;;;;;;;;;-142.75;100.00;77109.69;4969694;28;20025;-69
2023/01/01 08:58:28;;;;;;;5.97;1.23;;;;;;;-142.75;100.00;77111.66;4946594;28;20005;-69
2023/01/01 09:00:53;;;;;;;12.68;0.95;;;;;;;-142.75;100.00;77113.63;4974898;28;20426;-68
2023/01/01 09:03:19;;;;;;;9.48;1.08;;;;;;;-142.75;100.00;77117.56;4981096;28;20334;-68
2023/01/01 09:05:45;;;;;;;8.38;1.40;;;;;;;-142.75;100.00;77103.78;4976293;28;20109;-69
2023/01/01 09:08:14;;;;;;;7.65;1.25;;;;;;;-142.75;100.00;77101.81;4981050;28;20421;-69
2023/01/01 09:10:42;;;;;;;5.00;0.77;;;;;;;-142.75;100.00;77105.75;4977542;28;20572;-68
2023/01/01 09:13:08;;;;;;;5.90;1.00;;;;;;;-142.75;100.00;77113.63;4972900;28;20051;-69
2023/01/01 09:15:34;;;;;;;15.27;1.27;;;;;;;-142.75;100.00;77090.00;4977916;28;20090;-69
2023/01/01 09:17:59;;;;;;;6.25;1.23;;;;;;;-142.75;100.00;77097.88;4971221;28;20413;-68
2023/01/01 09:20:25;;;;;;;6.95;1.17;;;;;;;-142.75;100.00;77086.06;4967864;28;20199;-68
2023/01/01 09:22:50;;;;;;;3.72;1.30;;;;;;;-142.75;100.00;77097.88;4968012;28;20324;-69
2023/01/01 09:25:16;;;;;;;16.00;1.92;;;;;;;-142.75;100.00;77097.88;4978433;28;20336;-69
2023/01/01 09:27:41;;;;;;;9.20;1.40;;;;;;;-142.75;100.00;77090.00;4972077;28;20478;-67
2023/01/01 09:30:07;;;;;;;2.78;0.55;;;;;;;-142.75;100.00;77091.97;4965886;28;20301;-67
2023/01/01 09:32:33;;;;;;;12.50;1.70;;;;;;;-142.75;100.00;77076.22;4972304;28;20135;-67
2023/01/01 09:34:59;;;;;;;4.88;0.77;;;;;;;-142.75;100.00;77076.22;4967095;28;20391;-70
2023/01/01 09:37:26;;;;;;;10.02;2.22;;;;;;;-142.75;100.00;77066.38;4973428;28;20132;-69
2023/01/01 09:39:51;;;;;;;4.28;0.93;;;;;;;-142.75;100.00;77076.22;4977596;28;20132;-70
2023/01/01 09:42:38;;;;;;;5.18;0.90;;;;;;;-142.75;100.00;77066.38;4968694;28;20351;-69
2023/01/01 09:45:20;;;;;;;9.85;0.93;;;;;;;-142.75;100.00;77084.09;4985166;28;20592;-66
2023/01/01 09:47:53;;;;;;;6.07;0.82;;;;;;;-142.75;100.00;77074.25;4982797;28;20107;-69
2023/01/01 09:50:43;;;;;;;6.13;0.95;;;;;;;-142.75;100.00;77066.38;4976973;28;20025;-69
2023/01/01 09:53:11;;;;;;;6.65;1.20;;;;;;;-142.75;100.00;77058.50;4969412;28;20114;-69
2023/01/01 09:55:56;;;;;;;9.55;1.02;;;;;;;-142.75;100.00;77056.53;4967930;28;20542;-69
2023/01/01 09:58:32;;;;;;;11.55;1.00;;;;;;;-142.75;100.00;77062.44;4965109;28;20030;-69
2023/01/01 10:01:11;;;;;;;9.88;1.08;;;;;;;-142.75;100.00;77070.31;4977610;28;20690;-69
2023/01/01 10:03:41;;;;;;;9.85;1.55;;;;;;;-142.75;100.00;77091.97;4965769;28;20048;-70
2023/01/01 10:06:12;;;;;;;5.28;0.93;;;;;;;-142.75;100.00;77080.16;4968152;28;20592;-69
2023/01/01 10:09:06;;;;;;;5.82;1.10;;;;;;;-142.75;100.00;77058.50;4978276;28;20673;-70
2023/01/01 10:11:44;;;;;;;9.20;0.77;;;;;;;-142.75;100.00;77021.09;4966318;28;20026;-70
2023/01/01 10:14:25;;;;;;;10.43;1.10;;;;;;;-142.75;100.00;77023.06;4971014;28;20025;-70
2023/01/01 10:16:56;;;;;;;7.55;0.85;;;;;;;-142.75;100.00;76985.66;4975426;28;20160;-70
2023/01/01 10:19:39;;;;;;;8.88;1.02;;;;;;;-142.75;100.00;76977.78;4966090;28;20204;-69
2023/01/01 10:22:25;;;;;;;7.50;1.58;;;;;;;-142.75;100.00;76952.19;4969829;28;20091;-70
2023/01/01 10:25:02;;;;;;;11.63;1.20;;;;;;;-142.75;100.00;76908.88;4963503;28;20021;-69
2023/01/01 10:27:38;;;;;;;14.05;2.03;;;;;;;-142.75;100.00;76869.50;4984977;28;20099;-71
2023/01/01 10:30:15;;;;;;;9.38;1.20;;;;;;;-142.75;100.00;76863.59;4975545;28;20063;-71
2023/01/01 10:32:43;;;;;;;10.68;1.50;;;;;;;-142.75;100.00;76849.81;4963404;28;20032;-71
2023/01/01 10:35:15;;;;;;;7.13;1.23;;;;;;;-142.75;100.00;76881.31;5002313;28;20021;-70
2023/01/01 10:37:40;;;;;;;11.35;1.60;;;;;;;-142.75;100.00;76906.91;5030296;28;20036;-68
2023/01/01 10:40:18;;;;;;;14.30;1.38;;;;;;;-142.75;100.00;76924.63;5030617;28;20029;-71
2023/01/01 10:42:52;;;;;;;7.05;1.50;;;;;;;-142.75;100.00;76971.88;5025955;28;20128;-65
2023/01/01 10:45:28;;;;;;;9.18;0.80;;;;;;;-142.75;100.00;76987.63;5020375;28;20056;-69
2023/01/01 10:48:18;;;;;;;9.10;1.25;;;;;;;-142.75;100.00;76967.94;5030395;28;20033;-69
2023/01/01 10:50:52;;;;;;;9.13;1.25;;;;;;;-142.75;100.00;76991.56;5025001;28;20028;-70
2023/01/01 10:53:37;;;;;;;8.35;1.08;;;;;;;-142.75;100.00;76983.69;5035320;28;20055;-68
2023/01/01 10:56:12;;;;;;;9.00;1.05;;;;;;;-142.75;100.00;76981.72;4989129;28;20336;-70
2023/01/01 10:58:55;;;;;;;7.43;1.00;;;;;;;-142.75;100.00;76987.63;4962274;28;20136;-69
2023/01/01 11:01:23;;;;;;;7.57;1.48;;;;;;;-142.75;100.00;76981.72;4963869;28;20144;-69
2023/01/01 11:03:57;;;;;;;11.95;1.77;;;;;;;-142.75;100.00;77011.25;4979700;28;20530;-70
2023/01/01 11:06:28;;;;;;;8.10;2.08;;;;;;;-142.75;100.00;77017.16;4949406;28;20017;-68
2023/01/01 11:08:56;;;;;;;6.95;1.00;;;;;;;-142.75;100.00;77013.22;4977285;28;20106;-70
2023/01/01 11:11:44;;;;;;;6.28;1.33;;;;;;;-142.75;100.00;77011.25;4976371;28;20091;-71
2023/01/01 11:14:42;;;;;;;7.47;1.80;;;;;;;-142.75;100.00;77021.09;4966037;28;20028;-71
2023/01/01 11:17:09;;;;;;;8.10;1.80;;;;;;;-142.75;100.00;77015.19;4957554;28;20107;-70
2023/01/01 11:19:40;;;;;;;11.52;1.65;;;;;;;-142.75;100.00;77040.78;4975465;28;20648;-69
2023/01/01 11:22:06;;;;;;;9.80;1.45;;;;;;;-142.75;100.00;77015.19;4978841;28;20025;-71
2023/01/01 11:24:33;;;;;;;10.77;1.70;;;;;;;-142.75;100.00;77027.00;4973480;28;20028;-72